Time;durP1;ratioP1;P1;durP2;ratioP2;P2;SDS_P1;SDS_P2;PMS_P1;PMS_P2;Temp;Humidity;BMP_temperature;BMP_pressure;BME280_temperature;BME280_humidity;BME280_pressure;Samples;Min_cycle;Max_cycle;Signal;HPM_P1;HPM_P2
2021/03/11 00:01:46;;;;;;;0.7;0.7;;;;;;;1.58;69.04395;936.3981;;;;
2021/03/11 00:04:14;;;;;;;2.3;1.4;;;;;;;1.59;68.3418;936.3889;;;;
2021/03/11 00:06:40;;;;;;;2.4;1.5;;;;;;;1.42;68.81543;936.3484;;;;
2021/03/11 00:09:06;;;;;;;2.1;1.6;;;;;;;1.51;68.30566;936.4125;;;;
2021/03/11 00:11:32;;;;;;;3.8;1.9;;;;;;;1.62;68.29004;936.3621;;;;
2021/03/11 00:13:57;;;;;;;2.5;1.2;;;;;;;1.76;67.13672;936.3628;;;;
2021/03/11 00:16:32;;;;;;;2.6;1.6;;;;;;;1.66;67.64844;936.3253;;;;
2021/03/11 00:19:05;;;;;;;1.5;1.4;;;;;;;1.57;67.58789;936.3275;;;;
2021/03/11 00:21:31;;;;;;;2.7;1.6;;;;;;;1.66;67.69336;936.3184;;;;
2021/03/11 00:24:01;;;;;;;3.2;1.3;;;;;;;1.55;68.95898;936.1699;;;;
2021/03/11 00:26:26;;;;;;;1.9;1.5;;;;;;;1.47;69.60645;936.2321;;;;
2021/03/11 00:28:51;;;;;;;1;0.8;;;;;;;1.38;69.36914;936.1577;;;;
2021/03/11 00:31:21;;;;;;;1.1;1;;;;;;;1.38;69.55859;936.2171;;;;
2021/03/11 00:33:48;;;;;;;2.1;1.1;;;;;;;1.44;69.40039;936.1286;;;;
2021/03/11 00:36:13;;;;;;;1.4;1;;;;;;;1.42;69.35156;936.149;;;;
2021/03/11 00:38:38;;;;;;;2.1;1.3;;;;;;;1.46;69.28125;936.0416;;;;
2021/03/11 00:41:04;;;;;;;1.8;1.2;;;;;;;1.35;69.62109;936.1414;;;;
2021/03/11 00:43:30;;;;;;;2.5;1.6;;;;;;;1.42;69.7207;936.0895;;;;
2021/03/11 00:45:55;;;;;;;3.6;1.7;;;;;;;1.48;69.6416;936.1343;;;;
2021/03/11 00:48:20;;;;;;;4.5;1.6;;;;;;;1.57;68.83984;936.0217;;;;
2021/03/11 00:50:47;;;;;;;1.3;1;;;;;;;1.68;68.60059;936.0559;;;;
2021/03/11 00:53:12;;;;;;;2.3;1.7;;;;;;;1.91;67.9209;935.9913;;;;
2021/03/11 00:55:39;;;;;;;3.2;1.2;;;;;;;1.82;67.94141;935.9667;;;;
2021/03/11 00:58:04;;;;;;;1.9;1.2;;;;;;;1.92;67.21875;935.9509;;;;
2021/03/11 01:00:31;;;;;;;1.5;0.7;;;;;;;2.03;67.31445;935.9105;;;;
2021/03/11 01:02:56;;;;;;;2.2;1;;;;;;;1.93;66.40234;935.9135;;;;
2021/03/11 01:05:23;;;;;;;1.3;0.8;;;;;;;1.85;66.64844;935.9068;;;;
2021/03/11 01:07:48;;;;;;;1.4;1.2;;;;;;;1.93;66.8291;935.8588;;;;
2021/03/11 01:10:19;;;;;;;0.8;0.6;;;;;;;1.94;66.22754;935.601;;;;
2021/03/11 01:12:49;;;;;;;1.5;0.7;;;;;;;1.83;67.66309;935.782;;;;
2021/03/11 01:15:36;;;;;;;1.3;1.1;;;;;;;1.74;68.20996;935.7704;;;;
2021/03/11 01:18:17;;;;;;;1.3;1;;;;;;;1.57;68.77344;935.6905;;;;
2021/03/11 01:20:49;;;;;;;2.4;1.6;;;;;;;1.57;69.34375;935.6606;;;;
2021/03/11 01:23:18;;;;;;;2;1.4;;;;;;;1.72;68.82031;935.699;;;;
2021/03/11 01:25:53;;;;;;;1.5;1.2;;;;;;;1.74;68.16309;935.6973;;;;
2021/03/11 01:28:21;;;;;;;1.6;1;;;;;;;1.99;66.53613;935.6255;;;;
2021/03/11 01:30:56;;;;;;;2;1;;;;;;;1.81;66.45313;935.6503;;;;
2021/03/11 01:33:25;;;;;;;4.9;1.3;;;;;;;1.85;66.26758;935.6404;;;;
2021/03/11 01:35:50;;;;;;;0.9;0.7;;;;;;;1.85;66.2002;935.6027;;;;
2021/03/11 01:38:19;;;;;;;1.3;0.8;;;;;;;2.03;64.8291;935.4512;;;;
2021/03/11 01:40:43;;;;;;;1.1;0.9;;;;;;;2.28;64.19629;935.4079;;;;
2021/03/11 01:43:11;;;;;;;2.2;1;;;;;;;2.4;64.08008;935.4019;;;;
2021/03/11 01:45:43;;;;;;;0.9;0.7;;;;;;;2.41;64.18359;935.3336;;;;
2021/03/11 01:48:08;;;;;;;3.1;0.8;;;;;;;2.49;63.81348;935.3214;;;;
2021/03/11 01:50:39;;;;;;;1.4;1.1;;;;;;;2.33;65.5918;935.2319;;;;
2021/03/11 01:53:10;;;;;;;2.4;1.2;;;;;;;2.35;65.56152;935.1604;;;;
2021/03/11 01:55:40;;;;;;;1.7;0.9;;;;;;;2.33;65.96289;935.0963;;;;
2021/03/11 01:58:11;;;;;;;0.5;0.5;;;;;;;2.22;65.30762;935.1066;;;;
2021/03/11 02:00:40;;;;;;;2.3;0.8;;;;;;;2.34;61.9541;935.0675;;;;
2021/03/11 02:03:05;;;;;;;1;0.7;;;;;;;2.5;63.27832;935.074;;;;
2021/03/11 02:05:35;;;;;;;2.5;1.2;;;;;;;2.5;64.45313;935.1541;;;;
2021/03/11 02:08:02;;;;;;;1;0.8;;;;;;;2.52;64.42188;935.0887;;;;
2021/03/11 02:10:27;;;;;;;1.7;1.1;;;;;;;2.46;65.08594;935.1599;;;;
2021/03/11 02:12:56;;;;;;;1.3;0.6;;;;;;;2.51;65.0498;935.0234;;;;
2021/03/11 02:15:23;;;;;;;0.5;0.5;;;;;;;2.54;64.53711;935.0008;;;;
2021/03/11 02:17:56;;;;;;;0.5;0.5;;;;;;;2.51;64.04004;934.94;;;;
2021/03/11 02:20:30;;;;;;;1.1;0.7;;;;;;;2.76;63.8877;934.8716;;;;
2021/03/11 02:23:01;;;;;;;1;0.7;;;;;;;2.7;63.85645;934.9052;;;;
2021/03/11 02:25:34;;;;;;;0.8;0.7;;;;;;;2.67;63.69629;934.8884;;;;
2021/03/11 02:27:59;;;;;;;1.8;1;;;;;;;2.8;63.41211;934.8643;;;;
2021/03/11 02:30:25;;;;;;;1.3;1.1;;;;;;;2.62;64.06934;934.8569;;;;
2021/03/11 02:32:54;;;;;;;0.7;0.7;;;;;;;2.69;64.32617;934.7601;;;;
2021/03/11 02:35:19;;;;;;;1.1;0.8;;;;;;;2.56;64.48535;934.8231;;;;
2021/03/11 02:37:50;;;;;;;1.1;0.8;;;;;;;2.52;64.12012;934.7068;;;;
2021/03/11 02:40:22;;;;;;;2.3;1;;;;;;;2.51;64.52148;934.5659;;;;
2021/03/11 02:42:48;;;;;;;2.7;1.2;;;;;;;2.56;64.27246;934.5867;;;;
2021/03/11 02:45:21;;;;;;;0.5;0.5;;;;;;;2.56;64.05957;934.4764;;;;
2021/03/11 02:47:53;;;;;;;1.3;0.8;;;;;;;2.41;64.23828;934.4858;;;;
2021/03/11 02:50:20;;;;;;;2;0.9;;;;;;;2.62;63.56348;934.4456;;;;
2021/03/11 02:52:45;;;;;;;1.1;0.7;;;;;;;2.6;61.46484;934.4763;;;;
2021/03/11 02:55:13;;;;;;;1;0.6;;;;;;;2.83;58.39258;934.4096;;;;
2021/03/11 02:57:38;;;;;;;0.7;0.7;;;;;;;3.06;59.11914;934.3769;;;;
2021/03/11 03:00:10;;;;;;;1.9;0.7;;;;;;;3.42;58.6748;934.2924;;;;
2021/03/11 03:02:37;;;;;;;0.9;0.7;;;;;;;3.46;58.7041;934.2291;;;;
2021/03/11 03:05:02;;;;;;;1.5;0.8;;;;;;;3.3;59.20898;934.2225;;;;
2021/03/11 03:07:28;;;;;;;0.8;0.6;;;;;;;3.04;61.48535;934.175;;;;
2021/03/11 03:09:53;;;;;;;1.3;0.9;;;;;;;3.04;62.11328;934.2121;;;;
2021/03/11 03:12:18;;;;;;;0.8;0.7;;;;;;;2.92;62.72266;934.215;;;;
2021/03/11 03:14:49;;;;;;;1.9;0.9;;;;;;;2.91;62.47461;934.0826;;;;
2021/03/11 03:17:21;;;;;;;1.3;0.9;;;;;;;2.82;62.74219;934.0485;;;;
2021/03/11 03:19:52;;;;;;;2.4;0.7;;;;;;;2.88;62.12207;934.0179;;;;
2021/03/11 03:22:20;;;;;;;0.6;0.6;;;;;;;2.99;62.21777;933.9089;;;;
2021/03/11 03:24:51;;;;;;;2;0.8;;;;;;;3.18;61.64941;933.8086;;;;
2021/03/11 03:27:18;;;;;;;1.3;0.7;;;;;;;3.42;61.0332;933.8666;;;;
2021/03/11 03:29:46;;;;;;;0.8;0.8;;;;;;;3.4;60.76074;933.8161;;;;
2021/03/11 03:32:11;;;;;;;1.4;0.6;;;;;;;3.3;61.26367;933.7268;;;;
2021/03/11 03:34:42;;;;;;;1.1;0.8;;;;;;;3.27;60.40625;933.692;;;;
2021/03/11 03:37:08;;;;;;;0.6;0.6;;;;;;;3.35;60.49512;933.5441;;;;
2021/03/11 03:39:35;;;;;;;1.1;0.9;;;;;;;3.32;60.45801;933.5597;;;;
2021/03/11 03:42:04;;;;;;;1.3;0.9;;;;;;;3.45;60.0498;933.6102;;;;
2021/03/11 03:44:35;;;;;;;0.9;0.9;;;;;;;3.7;59.05176;933.5552;;;;
2021/03/11 03:47:01;;;;;;;3.2;0.8;;;;;;;3.84;58.48633;933.4412;;;;
2021/03/11 03:49:26;;;;;;;2.9;1.3;;;;;;;3.92;58.41699;933.5053;;;;
2021/03/11 03:51:53;;;;;;;1.5;0.9;;;;;;;3.81;58.77344;933.4788;;;;
2021/03/11 03:54:19;;;;;;;1;0.7;;;;;;;3.73;59.60645;933.4561;;;;
2021/03/11 03:56:44;;;;;;;12;1.2;;;;;;;3.56;59.31152;933.5139;;;;
2021/03/11 03:59:10;;;;;;;2;0.9;;;;;;;3.64;59.09766;933.5992;;;;
2021/03/11 04:02:29;;;;;;;2.3;1;;;;;;;3.43;60.5293;933.604;;;;
2021/03/11 04:04:54;;;;;;;1;0.8;;;;;;;3.29;61.28418;933.5959;;;;
2021/03/11 04:07:21;;;;;;;1;0.7;;;;;;;3.17;61.74902;933.5928;;;;
2021/03/11 04:09:46;;;;;;;1.2;1.1;;;;;;;3.07;62.23926;933.5861;;;;
2021/03/11 04:12:17;;;;;;;1.1;0.9;;;;;;;3.18;62.62598;933.4562;;;;
2021/03/11 04:14:49;;;;;;;0.8;0.6;;;;;;;3.24;61.04199;933.4758;;;;
2021/03/11 04:17:22;;;;;;;2.2;1.1;;;;;;;3.34;60.78711;933.4597;;;;
2021/03/11 04:19:50;;;;;;;1;0.8;;;;;;;3.39;60.74707;933.4498;;;;
2021/03/11 04:22:15;;;;;;;1;0.8;;;;;;;3.34;61.22363;933.4367;;;;
2021/03/11 04:24:45;;;;;;;0.8;0.7;;;;;;;3.41;60.99805;933.3903;;;;
2021/03/11 04:27:10;;;;;;;1.5;0.7;;;;;;;3.48;61.1543;933.4097;;;;
2021/03/11 04:29:42;;;;;;;0.8;0.7;;;;;;;3.41;61.05469;933.2628;;;;
2021/03/11 04:32:07;;;;;;;0.7;0.7;;;;;;;3.29;61.27344;933.1664;;;;
2021/03/11 04:34:38;;;;;;;1;0.8;;;;;;;3.04;61.90039;933.0787;;;;
2021/03/11 04:37:03;;;;;;;0.9;0.6;;;;;;;2.87;62.62695;933.0295;;;;
2021/03/11 04:39:34;;;;;;;1.6;1;;;;;;;2.84;63.04785;932.9995;;;;
2021/03/11 04:42:05;;;;;;;0.8;0.6;;;;;;;2.83;62.27246;933.0047;;;;
2021/03/11 04:44:37;;;;;;;3.1;0.9;;;;;;;2.83;61.8584;932.8083;;;;
2021/03/11 04:47:02;;;;;;;2.1;0.6;;;;;;;2.78;62.20996;932.8159;;;;
2021/03/11 04:49:32;;;;;;;0.6;0.5;;;;;;;2.86;62.48926;932.7539;;;;
2021/03/11 04:52:00;;;;;;;1.2;0.9;;;;;;;3.04;62.07813;932.6194;;;;
2021/03/11 04:54:25;;;;;;;2.4;0.9;;;;;;;2.96;61.41602;932.623;;;;
2021/03/11 04:56:53;;;;;;;2.5;0.7;;;;;;;2.81;61.01367;932.5402;;;;
2021/03/11 04:59:18;;;;;;;1.1;0.5;;;;;;;2.8;61.21289;932.5601;;;;
2021/03/11 05:01:46;;;;;;;2.2;1;;;;;;;2.77;61.11914;932.501;;;;
2021/03/11 05:04:12;;;;;;;1.1;0.7;;;;;;;2.84;60.10938;932.4191;;;;
2021/03/11 05:06:39;;;;;;;1.2;0.6;;;;;;;3.02;58.7207;932.3666;;;;
2021/03/11 05:09:04;;;;;;;1;0.9;;;;;;;3.25;58.5166;932.4217;;;;
2021/03/11 05:11:29;;;;;;;2;0.8;;;;;;;3.18;59.05664;932.4706;;;;
2021/03/11 05:14:00;;;;;;;2.5;2;;;;;;;3.17;59.76367;932.3438;;;;
2021/03/11 05:16:27;;;;;;;2.4;1.7;;;;;;;3.13;59.72363;932.3639;;;;
2021/03/11 05:18:54;;;;;;;3.1;1.3;;;;;;;3.22;59.99414;932.3535;;;;
2021/03/11 05:21:20;;;;;;;2.9;1.3;;;;;;;3.2;59.47559;932.2986;;;;
2021/03/11 05:23:49;;;;;;;2.6;1.8;;;;;;;3.12;58.91406;932.2772;;;;
2021/03/11 05:26:16;;;;;;;1.6;1.1;;;;;;;3.23;58.90723;932.2386;;;;
2021/03/11 05:28:41;;;;;;;2.3;1.3;;;;;;;3.31;58.96289;932.1794;;;;
2021/03/11 05:31:16;;;;;;;3.2;1.1;;;;;;;3.28;58.82324;932.1582;;;;
2021/03/11 05:33:46;;;;;;;0.7;0.7;;;;;;;3.41;57.71875;932.2256;;;;
2021/03/11 05:36:11;;;;;;;1.8;0.7;;;;;;;3.57;57.62891;932.2557;;;;
2021/03/11 05:38:42;;;;;;;2.4;1;;;;;;;3.6;59.4541;932.4034;;;;
2021/03/11 05:41:13;;;;;;;0.8;0.8;;;;;;;3.75;60.40723;932.2637;;;;
2021/03/11 05:43:44;;;;;;;2.1;1.4;;;;;;;3.88;60.4375;932.32;;;;
2021/03/11 05:46:15;;;;;;;0.9;0.9;;;;;;;3.99;60.53027;932.21;;;;
2021/03/11 05:48:45;;;;;;;3.3;1.4;;;;;;;3.99;60.39551;932.2502;;;;
2021/03/11 05:51:10;;;;;;;2.2;1;;;;;;;3.91;60.0918;932.0592;;;;
2021/03/11 05:53:41;;;;;;;1.6;1.1;;;;;;;3.83;58.94629;932.2377;;;;
2021/03/11 05:56:07;;;;;;;3.8;1.7;;;;;;;3.94;58.13867;932.2056;;;;
2021/03/11 05:58:35;;;;;;;1.8;1;;;;;;;3.84;58.78809;932.2883;;;;
2021/03/11 06:01:00;;;;;;;1.6;1.2;;;;;;;3.91;58.47363;932.2695;;;;
2021/03/11 06:03:29;;;;;;;5.3;1.6;;;;;;;3.81;58.34668;932.2859;;;;
2021/03/11 06:05:54;;;;;;;11;1.7;;;;;;;3.72;59.24414;932.3063;;;;
2021/03/11 06:08:19;;;;;;;1.7;1.1;;;;;;;3.85;58.75586;932.2104;;;;
2021/03/11 06:10:44;;;;;;;2.6;0.9;;;;;;;4;59.03613;932.2165;;;;
2021/03/11 06:13:14;;;;;;;1;0.9;;;;;;;4.1;58.98242;932.3468;;;;
2021/03/11 06:15:47;;;;;;;2.7;1.3;;;;;;;4.12;59.45801;932.2813;;;;
2021/03/11 06:18:16;;;;;;;2.6;1.3;;;;;;;4.27;58.83789;932.3103;;;;
2021/03/11 06:20:44;;;;;;;2.8;1.5;;;;;;;4.37;59.03125;932.4441;;;;
2021/03/11 06:23:17;;;;;;;3.7;0.9;;;;;;;4.32;59.27246;932.4319;;;;
2021/03/11 06:25:44;;;;;;;1.7;1;;;;;;;4.27;59.56836;932.4261;;;;
2021/03/11 06:28:09;;;;;;;4.7;1.7;;;;;;;4.38;60.25879;932.3914;;;;
2021/03/11 06:30:43;;;;;;;2.2;1.4;;;;;;;4.51;60.06445;932.4886;;;;
2021/03/11 06:33:13;;;;;;;6.1;2.8;;;;;;;4.32;59.13672;932.3876;;;;
2021/03/11 06:35:47;;;;;;;5.4;2.4;;;;;;;4.29;59.59473;932.4044;;;;
2021/03/11 06:38:17;;;;;;;3.4;1.7;;;;;;;4.24;60.07129;932.4717;;;;
2021/03/11 06:40:49;;;;;;;6.3;1.4;;;;;;;4.32;60.53223;932.5234;;;;
2021/03/11 06:43:15;;;;;;;1.6;1.1;;;;;;;4.24;59.3623;932.4623;;;;
2021/03/11 06:45:41;;;;;;;1.7;1;;;;;;;4.25;60.90527;932.5414;;;;
2021/03/11 06:48:11;;;;;;;1.3;1.2;;;;;;;4.18;60.6582;932.5179;;;;
2021/03/11 06:50:39;;;;;;;2.5;1;;;;;;;4.33;60.58984;932.5156;;;;
2021/03/11 06:53:07;;;;;;;3.5;1.5;;;;;;;4.35;60.34668;932.4815;;;;
2021/03/11 06:55:32;;;;;;;3.1;1.9;;;;;;;4.42;60.56934;932.4755;;;;
2021/03/11 06:58:00;;;;;;;4.7;2.2;;;;;;;4.48;62.21094;932.2444;;;;
2021/03/11 07:00:25;;;;;;;3;1.8;;;;;;;4.36;61.41602;932.2972;;;;
2021/03/11 07:02:51;;;;;;;2.9;1.6;;;;;;;4.56;59.41699;932.1569;;;;
2021/03/11 07:05:15;;;;;;;1.6;1.2;;;;;;;4.7;58.58105;932.1941;;;;
2021/03/11 07:07:40;;;;;;;3.5;1.3;;;;;;;4.98;57.80859;932.1978;;;;
2021/03/11 07:10:06;;;;;;;1.6;0.9;;;;;;;5.18;55.71582;932.2014;;;;
2021/03/11 07:12:36;;;;;;;1.3;1.1;;;;;;;5.53;56.76563;932.233;;;;
2021/03/11 07:15:01;;;;;;;3;0.8;;;;;;;5.73;54.79395;932.3506;;;;
2021/03/11 07:17:35;;;;;;;1.7;1;;;;;;;5.92;54.88574;932.2542;;;;
2021/03/11 07:20:00;;;;;;;3.9;1.4;;;;;;;6.03;55.63379;932.2681;;;;
2021/03/11 07:22:27;;;;;;;2.8;1.4;;;;;;;6.08;55.86621;932.28;;;;
2021/03/11 07:24:52;;;;;;;1.4;0.7;;;;;;;6.45;55.27051;932.2952;;;;
2021/03/11 07:27:17;;;;;;;1.3;1.1;;;;;;;6.76;54.72168;932.2848;;;;
2021/03/11 07:29:43;;;;;;;1.8;1.3;;;;;;;6.71;54.07129;932.3206;;;;
2021/03/11 07:32:08;;;;;;;3.3;1.7;;;;;;;6.5;54.8125;932.348;;;;
2021/03/11 07:34:38;;;;;;;5.1;1.6;;;;;;;6.61;54.07031;932.4092;;;;
2021/03/11 07:37:03;;;;;;;2.9;2;;;;;;;6.79;54.66895;932.4459;;;;
2021/03/11 07:39:28;;;;;;;8.9;2.3;;;;;;;7.06;54.3418;932.5466;;;;
2021/03/11 07:41:56;;;;;;;14;2.3;;;;;;;7.21;52.37793;932.4348;;;;
2021/03/11 07:44:22;;;;;;;4.5;2.7;;;;;;;7.27;52.15723;932.3761;;;;
2021/03/11 07:46:50;;;;;;;2.5;1.7;;;;;;;7.37;52.18164;932.3425;;;;
2021/03/11 07:49:15;;;;;;;2.9;1.6;;;;;;;7.5;51.75488;932.2444;;;;
2021/03/11 07:51:43;;;;;;;2.7;1.6;;;;;;;7.57;51.6748;932.2905;;;;
2021/03/11 07:54:08;;;;;;;3;1.8;;;;;;;7.64;50.58203;932.3208;;;;
2021/03/11 07:56:34;;;;;;;3.2;1.9;;;;;;;7.8;52.28027;932.3074;;;;
2021/03/11 07:58:59;;;;;;;3.3;1.8;;;;;;;7.91;51.84961;932.1747;;;;
2021/03/11 08:01:24;;;;;;;2.5;1.4;;;;;;;7.92;51.64746;932.3112;;;;
2021/03/11 08:03:49;;;;;;;2.7;1.4;;;;;;;8.04;52.43359;932.2983;;;;
2021/03/11 08:06:15;;;;;;;5.2;2.1;;;;;;;8.04;52.06934;932.2864;;;;
2021/03/11 08:08:43;;;;;;;3.5;1.4;;;;;;;8.19;51.69043;932.2188;;;;
2021/03/11 08:11:06;;;;;;;2.7;1.6;;;;;;;8.34;51.36816;932.2364;;;;
2021/03/11 08:13:36;;;;;;;1.2;1.1;;;;;;;8.43;50.71973;932.235;;;;
2021/03/11 08:16:16;;;;;;;1.4;1.2;;;;;;;8.67;51.46484;932.2242;;;;
2021/03/11 08:18:52;;;;;;;2.4;1.3;;;;;;;8.87;52.06836;932.1719;;;;
2021/03/11 08:21:21;;;;;;;3.1;1.5;;;;;;;9.06;51.64648;932.2653;;;;
2021/03/11 08:23:51;;;;;;;1.6;1.2;;;;;;;9.19;50.72949;932.1761;;;;
2021/03/11 08:26:22;;;;;;;2.2;1;;;;;;;9.33;48.96973;932.1516;;;;
2021/03/11 08:28:47;;;;;;;1.1;0.6;;;;;;;9.45;46.2168;932.0531;;;;
2021/03/11 08:31:12;;;;;;;1.4;0.8;;;;;;;9.56;43.4707;932.0414;;;;
2021/03/11 08:33:42;;;;;;;1.6;0.7;;;;;;;9.83;43.65918;932.0809;;;;
2021/03/11 08:36:15;;;;;;;0.5;0.5;;;;;;;10.21;42.62402;932.0231;;;;
2021/03/11 08:38:40;;;;;;;0.5;0.4;;;;;;;10.62;43.05176;931.9928;;;;
2021/03/11 08:41:10;;;;;;;0.5;0.5;;;;;;;10.75;42.59766;931.9832;;;;
2021/03/11 08:43:35;;;;;;;0.5;0.4;;;;;;;10.91;40.08691;932.0206;;;;
2021/03/11 08:46:05;;;;;;;1.9;0.7;;;;;;;10.84;40.94922;932.0756;;;;
2021/03/11 08:48:30;;;;;;;0.3;0.2;;;;;;;11.03;39.60742;932.0301;;;;
2021/03/11 08:50:58;;;;;;;0.4;0.2;;;;;;;10.97;40.34375;932.0028;;;;
2021/03/11 08:53:23;;;;;;;0;0;;;;;;;11.07;39.26758;931.932;;;;
2021/03/11 08:55:48;;;;;;;1.6;0.5;;;;;;;11.3;39.95215;931.7706;;;;
2021/03/11 08:58:13;;;;;;;0.4;0.4;;;;;;;11.37;39.24902;931.7917;;;;
2021/03/11 09:00:39;;;;;;;0.3;0.3;;;;;;;11.39;39.25098;931.7375;;;;
2021/03/11 09:03:04;;;;;;;0.7;0.3;;;;;;;11.54;39.59668;931.7737;;;;
2021/03/11 09:05:29;;;;;;;8.4;1.6;;;;;;;11.47;40.67773;931.7589;;;;
2021/03/11 09:07:57;;;;;;;1.2;0.9;;;;;;;11.58;41.48828;931.6699;;;;
2021/03/11 09:10:22;;;;;;;0.7;0.4;;;;;;;11.53;40.44238;931.6821;;;;
2021/03/11 09:12:49;;;;;;;0.8;0.6;;;;;;;11.51;40.88574;931.6113;;;;
2021/03/11 09:15:14;;;;;;;2;1.1;;;;;;;11.48;41.30762;931.6027;;;;
2021/03/11 09:17:41;;;;;;;1.4;0.9;;;;;;;11.59;41.55859;931.4992;;;;
2021/03/11 09:20:10;;;;;;;2.3;0.9;;;;;;;11.69;41.38574;931.534;;;;
2021/03/11 09:22:40;;;;;;;0.4;0.2;;;;;;;11.44;40.0791;931.488;;;;
2021/03/11 09:25:04;;;;;;;0.9;0.6;;;;;;;11.7;40.4248;931.5419;;;;
2021/03/11 09:27:30;;;;;;;1.2;0.5;;;;;;;11.91;39.41211;931.4719;;;;
2021/03/11 09:29:55;;;;;;;2.8;0.4;;;;;;;11.97;38.69531;931.4586;;;;
2021/03/11 09:32:22;;;;;;;0.4;0.4;;;;;;;12.15;39.99609;931.511;;;;
2021/03/11 09:34:47;;;;;;;0.3;0.2;;;;;;;12.55;37.92188;931.5211;;;;
2021/03/11 09:37:13;;;;;;;1.4;0.2;;;;;;;13.04;38.83789;931.3971;;;;
2021/03/11 09:39:39;;;;;;;1.9;0.4;;;;;;;13.26;38.30566;931.4679;;;;
2021/03/11 09:42:04;;;;;;;1.3;0.5;;;;;;;13.6;38.84082;931.4256;;;;
2021/03/11 09:44:32;;;;;;;3.9;1.3;;;;;;;13.87;37.66895;931.3161;;;;
2021/03/11 09:46:57;;;;;;;3.4;0.6;;;;;;;13.97;38.08105;931.3264;;;;
2021/03/11 09:49:24;;;;;;;2.2;0.5;;;;;;;13.81;38.75781;931.2173;;;;
2021/03/11 09:51:48;;;;;;;0.7;0.4;;;;;;;14.3;35.63281;931.2316;;;;
2021/03/11 09:54:15;;;;;;;0.3;0.2;;;;;;;14.61;37.50195;931.2469;;;;
2021/03/11 09:56:39;;;;;;;0.2;0.2;;;;;;;15.12;35.22754;931.0588;;;;
2021/03/11 09:59:05;;;;;;;4.3;1;;;;;;;15.46;34.51563;931.139;;;;
2021/03/11 10:01:33;;;;;;;1.6;0.3;;;;;;;15.63;34.00879;931.0889;;;;
2021/03/11 10:04:00;;;;;;;1;0.8;;;;;;;16.12;34.41797;931.0357;;;;
2021/03/11 10:06:25;;;;;;;1.1;0.5;;;;;;;16.48;35.31348;930.9941;;;;
2021/03/11 10:08:50;;;;;;;2.3;0.3;;;;;;;16.58;33.68848;930.9424;;;;
2021/03/11 10:11:16;;;;;;;0.3;0.1;;;;;;;16.62;33.77344;930.8461;;;;
2021/03/11 10:13:46;;;;;;;0.4;0;;;;;;;16.72;35.54102;930.8147;;;;
2021/03/11 10:16:08;;;;;;;0.2;0.1;;;;;;;16.2;35.41895;930.8563;;;;
2021/03/11 10:18:34;;;;;;;0.2;0.2;;;;;;;16.03;34.16699;930.8702;;;;
2021/03/11 10:21:01;;;;;;;0.5;0.2;;;;;;;15.47;37.05762;930.7202;;;;
2021/03/11 10:23:26;;;;;;;0.2;0.2;;;;;;;15.09;37.34766;930.7059;;;;
2021/03/11 10:25:56;;;;;;;0.3;0.2;;;;;;;15.28;37.31738;930.6958;;;;
2021/03/11 10:28:24;;;;;;;0.3;0.3;;;;;;;15.46;35.42773;930.6627;;;;
2021/03/11 10:30:53;;;;;;;0.5;0.1;;;;;;;15.73;35.57715;930.5848;;;;
2021/03/11 10:33:22;;;;;;;0;0;;;;;;;15.71;37.83984;930.7308;;;;
2021/03/11 10:35:50;;;;;;;0.9;0.5;;;;;;;16.35;34.99121;930.6859;;;;
2021/03/11 10:38:15;;;;;;;0.2;0.2;;;;;;;16.52;34.77246;930.4675;;;;
2021/03/11 10:40:41;;;;;;;0;0;;;;;;;16.65;35.57031;930.4603;;;;
2021/03/11 10:43:10;;;;;;;0;0;;;;;;;16.08;36.40332;930.4384;;;;
2021/03/11 10:45:35;;;;;;;0.3;0.3;;;;;;;15.77;37.37109;930.4548;;;;
2021/03/11 10:48:02;;;;;;;0.9;0.2;;;;;;;15.61;37.79688;930.4637;;;;
2021/03/11 10:50:27;;;;;;;1;0.4;;;;;;;15.87;37.20605;930.3965;;;;
2021/03/11 10:52:55;;;;;;;0.3;0.3;;;;;;;16;38.14258;930.3269;;;;
2021/03/11 10:55:24;;;;;;;0.4;0.1;;;;;;;16.24;37.22656;930.3552;;;;
2021/03/11 10:57:50;;;;;;;0.1;0.1;;;;;;;16.4;37.18164;930.3094;;;;
2021/03/11 11:00:15;;;;;;;0;0;;;;;;;16.87;36.62012;930.2601;;;;
2021/03/11 11:02:41;;;;;;;0;0;;;;;;;17.58;35.1123;930.2575;;;;
2021/03/11 11:05:06;;;;;;;0.3;0.3;;;;;;;18.4;34.02734;930.1877;;;;
2021/03/11 11:07:34;;;;;;;9.2;0.1;;;;;;;19.34;33.34277;930.073;;;;
2021/03/11 11:10:00;;;;;;;0.6;0.2;;;;;;;19.87;32.05273;930.0264;;;;
2021/03/11 11:12:27;;;;;;;0.1;0.1;;;;;;;20.6;31.04199;930.0438;;;;
2021/03/11 11:14:53;;;;;;;4.4;0.4;;;;;;;20.98;29.03418;930.0087;;;;
2021/03/11 11:17:28;;;;;;;0.3;0.2;;;;;;;20.98;31.58398;930.0549;;;;
2021/03/11 11:20:02;;;;;;;0;0;;;;;;;20.7;30.99121;929.967;;;;
2021/03/11 11:22:27;;;;;;;0;0;;;;;;;20.99;30.84766;929.9919;;;;
2021/03/11 11:24:53;;;;;;;0.6;0.2;;;;;;;20.72;31.15625;929.8942;;;;
2021/03/11 11:27:18;;;;;;;0.4;0.3;;;;;;;20.72;30.71191;929.8596;;;;
2021/03/11 11:29:43;;;;;;;1.2;0.9;;;;;;;20.67;31.81836;929.745;;;;
2021/03/11 11:32:08;;;;;;;0.6;0.4;;;;;;;20.69;30.80273;929.7492;;;;
2021/03/11 11:34:37;;;;;;;0;0;;;;;;;21.33;31.15234;929.6236;;;;
2021/03/11 11:37:02;;;;;;;0.3;0.1;;;;;;;21.64;30.64648;929.5661;;;;
2021/03/11 11:39:30;;;;;;;0.9;0.4;;;;;;;21.6;30.31543;929.4489;;;;
2021/03/11 11:41:55;;;;;;;0.2;0;;;;;;;21.74;30.45508;929.4554;;;;
2021/03/11 11:44:23;;;;;;;0.1;0.1;;;;;;;21.51;29.6543;929.3428;;;;
2021/03/11 11:46:47;;;;;;;3.4;0.4;;;;;;;22.03;30.35742;929.364;;;;
2021/03/11 11:49:16;;;;;;;0.7;0.3;;;;;;;22.51;29.0293;929.3322;;;;
2021/03/11 11:51:41;;;;;;;0.5;0;;;;;;;22.26;29.54004;929.2991;;;;
2021/03/11 11:54:08;;;;;;;0;0;;;;;;;21.25;31.38086;929.2784;;;;
2021/03/11 11:56:33;;;;;;;0.1;0;;;;;;;20.53;31.27148;929.1983;;;;
2021/03/11 11:58:59;;;;;;;0;0;;;;;;;20.22;32.3457;929.0909;;;;
2021/03/11 12:01:24;;;;;;;0.2;0;;;;;;;20.21;32.79004;929.0808;;;;
2021/03/11 12:03:50;;;;;;;0;0;;;;;;;20.72;30.79395;929.0553;;;;
2021/03/11 12:06:16;;;;;;;0.2;0.1;;;;;;;20.58;31.24023;928.9437;;;;
2021/03/11 12:08:43;;;;;;;0.1;0.1;;;;;;;20.49;30.94141;928.9421;;;;
2021/03/11 12:11:08;;;;;;;0;0;;;;;;;20.85;31.44531;928.8588;;;;
2021/03/11 12:13:35;;;;;;;0;0;;;;;;;21.08;31.32129;928.8081;;;;
2021/03/11 12:16:17;;;;;;;0.1;0.1;;;;;;;21.17;31.51465;928.774;;;;
2021/03/11 12:18:44;;;;;;;0;0;;;;;;;22.21;29.25586;928.6344;;;;
2021/03/11 12:21:16;;;;;;;0.2;0.1;;;;;;;23.1;27.11719;928.5465;;;;
2021/03/11 12:23:43;;;;;;;0;0;;;;;;;24.7;26.75391;928.5161;;;;
2021/03/11 12:26:08;;;;;;;0;0;;;;;;;25.72;24.13281;928.4241;;;;
2021/03/11 12:28:35;;;;;;;0.5;0.2;;;;;;;26.18;23.93262;928.2816;;;;
2021/03/11 12:31:00;;;;;;;0;0;;;;;;;25.7;24.46289;928.1945;;;;
2021/03/11 12:33:30;;;;;;;0;0;;;;;;;25.39;25.2373;928.2772;;;;
2021/03/11 12:35:55;;;;;;;0;0;;;;;;;25.83;24.59961;928.2056;;;;
2021/03/11 12:38:21;;;;;;;0.2;0.1;;;;;;;27.42;22.2793;928.1691;;;;
2021/03/11 12:40:46;;;;;;;0.2;0.1;;;;;;;28.61;20.51855;928.1423;;;;
2021/03/11 12:43:15;;;;;;;0.1;0.1;;;;;;;28.17;20.89063;928.1545;;;;
2021/03/11 12:45:40;;;;;;;0;0;;;;;;;28.39;20.97168;928.0276;;;;
2021/03/11 12:48:11;;;;;;;0;0;;;;;;;28.39;20.53223;927.9175;;;;
2021/03/11 12:50:36;;;;;;;0.1;0.1;;;;;;;27.66;21.8877;927.8964;;;;
2021/03/11 12:53:02;;;;;;;0;0;;;;;;;28.71;20.85547;927.8633;;;;
2021/03/11 12:55:27;;;;;;;0;0;;;;;;;28.47;20.35742;927.7858;;;;
2021/03/11 12:57:54;;;;;;;0;0;;;;;;;29.39;20.31543;927.7261;;;;
2021/03/11 13:01:13;;;;;;;0.2;0.1;;;;;;;29.14;20.3877;927.8209;;;;
2021/03/11 13:03:40;;;;;;;0;0;;;;;;;28.93;20.0332;927.7626;;;;
2021/03/11 13:06:18;;;;;;;0;0;;;;;;;29.47;19.6875;927.7746;;;;
2021/03/11 13:08:43;;;;;;;0.1;0.1;;;;;;;30.03;19.3418;927.6592;;;;
2021/03/11 13:11:08;;;;;;;0.2;0.2;;;;;;;29.59;19.49023;927.6142;;;;
2021/03/11 13:14:27;;;;;;;0;0;;;;;;;30.02;19.3291;927.6219;;;;
2021/03/11 13:16:58;;;;;;;0.1;0.1;;;;;;;29.04;21.16895;927.6486;;;;
2021/03/11 13:19:33;;;;;;;0.6;0.4;;;;;;;27.84;22.46582;927.5992;;;;
2021/03/11 13:22:00;;;;;;;0.2;0.2;;;;;;;24.69;27.79199;927.5922;;;;
2021/03/11 13:24:32;;;;;;;0.9;0.1;;;;;;;23.92;28.75684;927.5455;;;;
2021/03/11 13:27:11;;;;;;;0.1;0.1;;;;;;;22.73;30.53418;927.3072;;;;
2021/03/11 13:29:36;;;;;;;0;0;;;;;;;21.59;33.10254;927.3378;;;;
2021/03/11 13:32:04;;;;;;;0;0;;;;;;;21.33;33.69141;927.2422;;;;
2021/03/11 13:34:40;;;;;;;0;0;;;;;;;20.87;34.34668;927.2683;;;;
2021/03/11 13:37:06;;;;;;;0;0;;;;;;;20.13;35.45605;927.2453;;;;
2021/03/11 13:39:31;;;;;;;0.1;0.1;;;;;;;19.97;36.67969;927.3583;;;;
2021/03/11 13:42:00;;;;;;;0.1;0.1;;;;;;;19.97;35.88672;927.3856;;;;
2021/03/11 13:44:29;;;;;;;0.1;0;;;;;;;19.92;35.38086;927.2742;;;;
2021/03/11 13:46:54;;;;;;;0;0;;;;;;;19.84;35.26953;927.3258;;;;
2021/03/11 13:49:22;;;;;;;0;0;;;;;;;19.83;35.09375;927.2809;;;;
2021/03/11 13:51:47;;;;;;;0.3;0.2;;;;;;;19.71;35.49316;927.3851;;;;
2021/03/11 13:54:14;;;;;;;0;0;;;;;;;19.39;37.08594;927.3731;;;;
2021/03/11 13:56:52;;;;;;;0;0;;;;;;;19.1;37.5166;927.3741;;;;
2021/03/11 13:59:22;;;;;;;2.4;0.1;;;;;;;19.35;36.7793;927.382;;;;
2021/03/11 14:01:46;;;;;;;0;0;;;;;;;19.37;38.23828;927.2899;;;;
2021/03/11 14:04:11;;;;;;;0.1;0.1;;;;;;;19.29;37.91699;927.3586;;;;
2021/03/11 14:06:37;;;;;;;0;0;;;;;;;19.03;36.7998;927.4456;;;;
2021/03/11 14:09:02;;;;;;;0;0;;;;;;;19.18;37.01074;927.3878;;;;
2021/03/11 14:11:27;;;;;;;1.7;0.1;;;;;;;19.23;37.56152;927.416;;;;
2021/03/11 14:13:52;;;;;;;0;0;;;;;;;19.03;38.08008;927.433;;;;
2021/03/11 14:16:30;;;;;;;0;0;;;;;;;19.25;37.41309;927.5302;;;;
2021/03/11 14:18:57;;;;;;;0.1;0.1;;;;;;;19.39;36.91113;927.5014;;;;
2021/03/11 14:21:22;;;;;;;0;0;;;;;;;19.07;39.0625;927.4592;;;;
2021/03/11 14:23:47;;;;;;;0.1;0.1;;;;;;;19.11;39.21777;927.5173;;;;
2021/03/11 14:26:12;;;;;;;0.1;0.1;;;;;;;19.04;38.32617;927.4501;;;;
2021/03/11 14:28:40;;;;;;;0.2;0.2;;;;;;;19.13;39.42773;927.4675;;;;
2021/03/11 14:31:05;;;;;;;0.1;0;;;;;;;19.3;38.42969;927.4875;;;;
2021/03/11 14:33:31;;;;;;;0;0;;;;;;;19.24;38.25098;927.4227;;;;
2021/03/11 14:35:56;;;;;;;0;0;;;;;;;19.41;37.84473;927.4773;;;;
2021/03/11 14:38:22;;;;;;;0.3;0.1;;;;;;;19.34;37.80371;927.4325;;;;
2021/03/11 14:40:48;;;;;;;0;0;;;;;;;19.24;38.4248;927.4924;;;;
2021/03/11 14:43:14;;;;;;;0.4;0.3;;;;;;;19.47;37.90918;927.6443;;;;
2021/03/11 14:45:39;;;;;;;0;0;;;;;;;19.39;36.63184;927.6225;;;;